• Join FlightAware (Why Join?)
  • Login
  • US Flag 
Rudolph Flight #1: Arrived! 
08:06PM EST


 

Airport Tracker/Info


-or-


 

Live Flight TrackerFlight Track Log ✈ DAL1562 ✈ 12-May-2013 ✈ KSLC - KDEN

Flight Track Log - Related Links

Times and Time Zones

All times are in EDT time to prevent confusion due to time zone crossing. See the DAL1562 flight status page for this flight to view local times or setup timezone preferences in your user account.

Time Position Orientation Groundspeed Altitude Reporting Facility
EDT Latitude Longitude Course Direction KTS MPH feet Rate Location/Type
10:23PM 40.8125 -111.9661 148° Southeast 191 220 5,200  Level Salt Lake Center
10:23PM 40.8586 -111.9703 356° North 206 237 6,200 1,140 Climbing Salt Lake Center
10:24PM 40.8836 -111.9736 354° North 225 259 6,600 2,160 Climbing Salt Lake Center
10:24PM 40.9294 -111.9800 354° North 261 300 8,400 3,000 Climbing Salt Lake Center
10:25PM 41.1066 -111.9613 51° Northeast  Level FlightAware Approximate
10:25PM 40.9581 -111.9833 355° North 263 303 9,700  Level Salt Lake Center
10:26PM 41.1333 -111.8235 90° East  Level FlightAware Approximate
10:26PM 41.0311 -111.9778 North 275 316 12,600  Level Salt Lake Center
10:27PM 41.0610 -111.7180 148° Southeast  Level FlightAware Approximate
10:27PM 41.0292 -111.8761 91° East 304 350 14,900  Level Salt Lake Center
10:28PM 40.9647 -111.6392 148° Southeast  Level FlightAware Approximate
10:28PM 41.0022 -111.7631 107° East 351 404 15,900  Level Salt Lake Center
10:29PM 40.9861 -111.5903 97° East 398 458 18,300 2,040 Climbing Salt Lake Center
10:30PM 40.9725 -111.4378 97° East 417 480 20,200 1,980 Climbing Salt Lake Center
10:31PM 40.9581 -111.2831 97° East 422 486 22,400 1,800 Climbing Salt Lake Center
10:32PM 40.9428 -111.1242 97° East 435 501 24,000 1,440 Climbing Salt Lake Center
10:33PM 40.9275 -110.9608 97° East 447 514 25,400 1,500 Climbing Salt Lake Center
10:34PM 40.9114 -110.7933 97° East 459 528 27,100 1,440 Climbing Salt Lake Center
10:35PM 40.8953 -110.6261 97° East 459 528 28,400 1,260 Climbing Salt Lake Center
10:36PM 40.8756 -110.4319 98° East 471 542 29,700 1,260 Climbing Salt Lake Center
10:37PM 40.8597 -110.2664 97° East 476 548 31,100 1,500 Climbing Salt Lake Center
10:38PM 40.8406 -110.0833 98° East 470 541 32,800 1,380 Climbing Salt Lake Center
10:39PM 40.8253 -109.9239 97° East 461 531 34,000 1,200 Climbing Salt Lake Center
10:40PM 40.8050 -109.7414 98° East 452 520 35,300 960 Climbing Salt Lake Center
10:41PM 40.7883 -109.5856 98° East 448 516 36,000 780 Climbing Salt Lake Center
10:42PM 40.7714 -109.4294 98° East 448 516 36,900 480 Climbing Salt Lake Center
10:43PM 40.7575 -109.2517 96° East 439 505 37,000  Climbing Salt Lake Center
10:44PM 40.7422 -109.0997 98° East 437 503 37,000  Level Salt Lake Center
10:45PM 40.7267 -108.9203 96° East 441 507 37,100 60 Climbing Salt Lake Center
10:46PM 40.7208 -108.8411 96° East 439 505 37,100 -120 Level Denver Center
10:47PM 40.7039 -108.6611 97° East 442 509 37,000 -120 Descending Denver Center
10:47PM 40.6994 -108.6175 98° East 439 505 37,000  Level Salt Lake Center
10:48PM 40.6825 -108.4406 97° East 437 503 37,000  Level Salt Lake Center
10:49PM 40.6750 -108.3564 97° East 438 504 37,000  Level Denver Center
10:50PM 40.6581 -108.1794 97° East 436 502 37,000  Level Denver Center
10:51PM 40.6425 -108.0275 98° East 437 503 37,000  Level Denver Center
10:52PM 40.6283 -107.8744 97° East 438 504 37,000  Level Denver Center
10:53PM 40.6106 -107.6975 97° East 436 502 37,000  Level Denver Center
10:54PM 40.5939 -107.5450 98° East 439 505 37,000  Level Denver Center
10:55PM 40.5753 -107.3683 98° East 438 504 37,000  Level Denver Center
10:56PM 40.5600 -107.2156 97° East 439 505 37,100  Climbing Denver Center
10:57PM 40.5431 -107.0575 98° East 442 509 37,000 -60 Descending Denver Center
10:58PM 40.5258 -106.8981 98° East 441 507 37,000  Level Denver Center
10:59PM 40.5083 -106.7389 98° East 439 505 37,000 -300 Level Denver Center
11:00PM 40.4911 -106.5797 98° East 438 504 36,400 -1,140 Descending Denver Center
11:01PM 40.4700 -106.4011 99° East 445 512 34,800 -2,400 Descending Denver Center
11:02PM 40.4542 -106.2469 98° East 445 512 31,500 -3,240 Descending Denver Center
11:03PM 40.4344 -106.0906 99° East 456 525 28,200 -3,000 Descending Denver Center
11:04PM 40.4144 -105.9264 99° East 455 524 25,400 -2,760 Descending Denver Center
11:05PM 40.3967 -105.7708 98° East 436 502 22,600 -2,580 Descending Denver Center
11:06PM 40.3772 -105.6161 99° East 432 497 20,200 -1,740 Descending Denver Center
11:07PM 40.3564 -105.4519 99° East 395 455 19,100 -1,320 Descending Denver Center
11:08PM 40.3417 -105.3322 99° East 338 389 17,500 -1,680 Descending Denver Center
11:09PM 40.3258 -105.2139 100° East 332 382 15,800 -1,740 Descending Denver Center
11:10PM 40.3094 -105.0964 100° East 328 377 14,000 -1,320 Descending Denver Center
11:11PM 40.2817 -104.9894 109° East 313 360 13,200 -1,320 Descending Denver Center
11:12PM 40.2353 -104.8897 121° Southeast 297 342 11,300 -1,320 Descending Denver Center
11:13PM 40.1953 -104.7942 119° Southeast 299 344 10,500 -1,140 Descending Denver Center
11:14PM 40.1511 -104.7197 128° Southeast 275 316 9,100 -840 Descending Denver Center
11:15PM 40.0889 -104.6836 156° South 246 283 8,800 -300 Descending Denver Center